Time;durP1;ratioP1;P1;durP2;ratioP2;P2;SDS_P1;SDS_P2;PMS_P1;PMS_P2;Temp;Humidity;BMP_temperature;BMP_pressure;BME280_temperature;BME280_humidity;BME280_pressure;Samples;Min_cycle;Max_cycle;Signal;HPM_P1;HPM_P2
2022/06/08 00:00:59;;;;;;;;;;;;;;;22.55;55.42;99200.13;5034152;28;19932;-38
2022/06/08 00:03:32;;;;;;;;;;;;;;;22.45;55.81;99195.69;5033987;28;20369;-38
2022/06/08 00:05:58;;;;;;;;;;;;;;;22.49;55.77;99191.28;5034243;28;19909;-38
2022/06/08 00:08:23;;;;;;;;;;;;;;;22.53;55.89;99199.63;5034449;28;20234;-38
2022/06/08 00:10:49;;;;;;;;;;;;;;;22.67;55.77;99188.81;5034213;28;19967;-38
2022/06/08 00:13:14;;;;;;;;;;;;;;;22.68;55.53;99185.81;5033662;28;19909;-39
2022/06/08 00:15:40;;;;;;;;;;;;;;;22.49;55.95;99183.13;5034149;28;19999;-38
2022/06/08 00:18:06;;;;;;;;;;;;;;;22.45;56.00;99179.41;5033971;28;20054;-39
2022/06/08 00:20:32;;;;;;;;;;;;;;;22.40;56.50;99177.56;5034322;28;20435;-38
2022/06/08 00:22:57;;;;;;;;;;;;;;;22.19;57.40;99187.91;5033863;28;20300;-38
2022/06/08 00:25:22;;;;;;;;;;;;;;;22.26;57.70;99187.56;5033457;28;19915;-38
2022/06/08 00:27:48;;;;;;;;;;;;;;;22.29;57.30;99186.97;5034151;28;20006;-38
2022/06/08 00:30:13;;;;;;;;;;;;;;;22.03;58.27;99181.09;5033846;28;20254;-38
2022/06/08 00:32:39;;;;;;;;;;;;;;;21.91;58.61;99178.00;5033531;28;19921;-38
2022/06/08 00:35:05;;;;;;;;;;;;;;;21.92;58.24;99171.50;5033449;28;19920;-38
2022/06/08 00:37:30;;;;;;;;;;;;;;;21.86;58.42;99174.28;5034106;28;19909;-38
2022/06/08 00:39:55;;;;;;;;;;;;;;;21.90;58.73;99185.34;5033585;28;19909;-38
2022/06/08 00:42:21;;;;;;;;;;;;;;;21.88;58.89;99178.63;5033599;28;20082;-38
2022/06/08 00:44:46;;;;;;;;;;;;;;;21.88;58.32;99159.66;5032123;28;19943;-38
2022/06/08 00:47:15;;;;;;;;;;;;;;;22.07;58.10;99184.84;5033735;28;19909;-36
2022/06/08 00:49:43;;;;;;;;;;;;;;;21.93;58.88;99183.94;5033345;28;20037;-36
2022/06/08 00:52:09;;;;;;;;;;;;;;;21.99;58.50;99175.47;5033079;28;19909;-36
2022/06/08 00:54:39;;;;;;;;;;;;;;;22.03;57.94;99179.19;5032977;28;19917;-37
2022/06/08 00:57:18;;;;;;;;;;;;;;;22.03;57.93;99176.47;5032807;28;19913;-38
2022/06/08 00:59:47;;;;;;;;;;;;;;;21.88;58.87;99178.63;5032337;28;19966;-38
2022/06/08 01:02:13;;;;;;;;;;;;;;;21.95;58.78;99179.84;5033068;28;19995;-37
2022/06/08 01:04:38;;;;;;;;;;;;;;;21.90;58.63;99188.03;5033305;28;20369;-37
2022/06/08 01:07:04;;;;;;;;;;;;;;;21.84;59.06;99189.22;5032933;28;19999;-38
2022/06/08 01:09:32;;;;;;;;;;;;;;;21.91;58.89;99183.44;5033235;28;19966;-37
2022/06/08 01:11:59;;;;;;;;;;;;;;;21.96;58.51;99189.59;5032864;28;19909;-37
2022/06/08 01:14:24;;;;;;;;;;;;;;;21.82;58.60;99180.59;5032836;28;19915;-37
2022/06/08 01:16:53;;;;;;;;;;;;;;;21.76;58.87;99187.13;5032814;28;19916;-37
2022/06/08 01:19:18;;;;;;;;;;;;;;;21.76;58.81;99187.97;5032899;28;20392;-38
2022/06/08 01:21:45;;;;;;;;;;;;;;;21.67;58.93;99187.00;5032555;28;19940;-38
2022/06/08 01:24:11;;;;;;;;;;;;;;;21.67;58.96;99185.09;5032723;28;19909;-37
2022/06/08 01:26:36;;;;;;;;;;;;;;;21.48;59.23;99187.75;5032698;28;19916;-38
2022/06/08 01:29:16;;;;;;;;;;;;;;;21.05;60.21;99176.03;5032469;28;19919;-38
2022/06/08 01:32:04;;;;;;;;;;;;;;;21.26;59.76;99182.03;5030903;28;19925;-37
2022/06/08 01:34:35;;;;;;;;;;;;;;;21.21;60.25;99182.91;5012787;28;19909;-38
2022/06/08 01:37:11;;;;;;;;;;;;;;;21.02;59.97;99184.72;5032648;28;20318;-38
2022/06/08 01:39:36;;;;;;;;;;;;;;;21.23;58.59;99193.44;5032366;28;19913;-38
2022/06/08 01:42:21;;;;;;;;;;;;;;;21.28;58.92;99191.50;5045675;28;20007;-38
2022/06/08 01:45:38;;;;;;;;;;;;;;;21.40;58.20;99193.78;5051859;28;19919;-38
2022/06/08 01:48:01;;;;;;;;;;;;;;;21.48;57.55;99193.16;5049006;28;19971;-38
2022/06/08 01:50:26;;;;;;;;;;;;;;;21.42;57.70;99194.31;5051774;28;19912;-38
2022/06/08 01:52:54;;;;;;;;;;;;;;;21.46;57.71;99189.94;5051518;28;20347;-38
2022/06/08 01:55:19;;;;;;;;;;;;;;;21.51;57.26;99183.66;5051625;28;19920;-38
2022/06/08 01:57:56;;;;;;;;;;;;;;;21.31;57.66;99181.97;5051744;28;19909;-38
2022/06/08 02:00:23;;;;;;;;;;;;;;;21.32;56.95;99182.78;5051155;28;19935;-37
2022/06/08 02:03:01;;;;;;;;;;;;;;;21.46;56.41;99178.31;5051485;28;19912;-37
2022/06/08 02:05:29;;;;;;;;;;;;;;;21.42;56.88;99183.47;5050948;28;19909;-38
2022/06/08 02:08:12;;;;;;;;;;;;;;;21.31;56.97;99181.97;5051699;28;19908;-38
2022/06/08 02:10:44;;;;;;;;;;;;;;;21.32;57.38;99185.47;5051510;28;19915;-38
2022/06/08 02:13:14;;;;;;;;;;;;;;;21.31;57.13;99190.09;5051810;28;19916;-38
2022/06/08 02:15:43;;;;;;;;;;;;;;;21.25;57.40;99181.22;5051819;28;19917;-39
2022/06/08 02:18:16;;;;;;;;;;;;;;;21.21;57.71;99176.66;5052169;28;19908;-39
2022/06/08 02:21:08;;;;;;;;;;;;;;;21.19;57.33;99179.69;5049570;28;19912;-39
2022/06/08 02:23:44;;;;;;;;;;;;;;;21.19;57.49;99182.38;5028742;28;19916;-37
2022/06/08 02:26:15;;;;;;;;;;;;;;;21.23;57.61;99179.91;5031507;28;19913;-37
2022/06/08 02:28:44;;;;;;;;;;;;;;;21.31;57.60;99179.28;5031405;28;20348;-37
2022/06/08 02:31:13;;;;;;;;;;;;;;;21.32;57.62;99180.06;5031420;28;19916;-37
2022/06/08 02:36:37;;;;;;;;;;;;;;;21.20;57.42;99181.28;5031503;28;19970;-38
2022/06/08 02:39:05;;;;;;;;;;;;;;;21.20;57.20;99188.59;5031410;28;19920;-36
2022/06/08 02:41:32;;;;;;;;;;;;;;;21.06;58.05;99183.88;5031410;28;20319;-38
2022/06/08 02:44:01;;;;;;;;;;;;;;;21.10;57.88;99184.09;5031043;28;19908;-38
2022/06/08 02:46:47;;;;;;;;;;;;;;;21.17;57.80;99183.75;5030893;28;19909;-38
2022/06/08 02:49:12;;;;;;;;;;;;;;;21.16;57.72;99192.97;5032541;28;20300;-38
2022/06/08 02:51:41;;;;;;;;;;;;;;;21.19;57.64;99189.69;5050583;28;20357;-38
2022/06/08 02:54:12;;;;;;;;;;;;;;;21.33;57.21;99187.91;5050519;28;19913;-38
2022/06/08 02:56:56;;;;;;;;;;;;;;;21.26;56.53;99190.16;5050879;28;19935;-36
2022/06/08 02:59:24;;;;;;;;;;;;;;;21.24;56.71;99190.44;5050591;28;20153;-37
2022/06/08 03:01:55;;;;;;;;;;;;;;;21.29;56.51;99189.59;5050232;28;19919;-37
2022/06/08 03:04:23;;;;;;;;;;;;;;;21.33;56.06;99192.53;5050221;28;19908;-37
2022/06/08 03:06:59;;;;;;;;;;;;;;;21.29;56.60;99189.59;5050381;28;19908;-37
2022/06/08 03:09:25;;;;;;;;;;;;;;;21.20;56.93;99186.69;5050859;28;19909;-37
2022/06/08 03:11:56;;;;;;;;;;;;;;;21.27;56.59;99181.75;5050527;28;19909;-37
2022/06/08 03:14:22;;;;;;;;;;;;;;;21.33;56.26;99189.81;5050593;28;19915;-37
2022/06/08 03:16:54;;;;;;;;;;;;;;;21.33;56.45;99184.41;5050179;28;19913;-37
2022/06/08 03:19:20;;;;;;;;;;;;;;;21.28;56.32;99183.38;5050413;28;20272;-37
2022/06/08 03:21:46;;;;;;;;;;;;;;;21.25;56.13;99185.84;5039587;28;19988;-37
2022/06/08 03:24:12;;;;;;;;;;;;;;;21.18;56.20;99186.16;5030719;28;19923;-37
2022/06/08 03:26:39;;;;;;;;;;;;;;;21.31;55.67;99200.13;5030089;28;19909;-37
2022/06/08 03:29:05;;;;;;;;;;;;;;;21.37;55.63;99197.06;5030368;28;19905;-37
2022/06/08 03:31:31;;;;;;;;;;;;;;;21.37;55.31;99193.56;5030488;28;20262;-37
2022/06/08 03:33:56;;;;;;;;;;;;;;;21.38;55.48;99195.97;5030200;28;20572;-37
2022/06/08 03:36:22;;;;;;;;;;;;;;;21.13;59.13;99197.03;5043329;28;19920;-37
2022/06/08 03:38:47;;;;;;;;;;;;;;;21.48;55.67;99198.59;5050765;28;19999;-37
2022/06/08 03:41:12;;;;;;;;;;;;;;;21.75;54.77;99202.59;5050966;28;20391;-38
2022/06/08 03:43:38;;;;;;;;;;;;;;;21.75;55.17;99213.41;5050863;28;20016;-37
2022/06/08 03:46:05;;;;;;;;;;;;;;;21.77;55.60;99197.69;5050407;28;19916;-37
2022/06/08 03:48:30;;;;;;;;;;;;;;;22.13;54.76;99208.03;5040813;28;19967;-36
2022/06/08 03:50:56;;;;;;;;;;;;;;;22.19;55.49;99212.28;5039233;28;19920;-37
2022/06/08 03:53:23;;;;;;;;;;;;;;;22.75;54.22;99199.78;5050826;28;20015;-37
2022/06/08 03:55:50;;;;;;;;;;;;;;;23.01;54.00;99199.34;5050772;28;19913;-37
2022/06/08 03:58:16;;;;;;;;;;;;;;;23.28;52.39;99212.16;5049739;28;20296;-38
2022/06/08 04:00:41;;;;;;;;;;;;;;;23.98;50.52;99211.03;5049618;28;19915;-37
2022/06/08 04:03:09;;;;;;;;;;;;;;;24.19;49.43;99216.81;5049602;28;19915;-37
2022/06/08 04:05:34;;;;;;;;;;;;;;;24.27;49.60;99220.72;5049351;28;20354;-37
2022/06/08 04:08:00;;;;;;;;;;;;;;;23.89;50.21;99218.28;5048775;28;20394;-38
2022/06/08 04:10:25;;;;;;;;;;;;;;;24.55;49.51;99223.38;5049212;28;19909;-37
2022/06/08 04:12:51;;;;;;;;;;;;;;;24.67;48.01;99217.38;5049378;28;19908;-36
2022/06/08 04:15:41;;;;;;;;;;;;;;;24.50;48.44;99224.28;5049049;28;19995;-49
2022/06/08 04:18:01;;;;;;;;;;;;;;;24.77;48.59;99222.56;5048780;28;20369;-47
2022/06/08 04:20:26;;;;;;;;;;;;;;;24.93;47.16;99223.78;5048778;28;19915;-50
2022/06/08 04:22:52;;;;;;;;;;;;;;;24.87;46.97;99218.78;5030644;28;20007;-52
2022/06/08 04:25:17;;;;;;;;;;;;;;;25.05;46.49;99225.13;5048188;28;20398;-48
2022/06/08 04:27:42;;;;;;;;;;;;;;;25.14;46.89;99225.97;5049106;28;19912;-49
2022/06/08 04:30:08;;;;;;;;;;;;;;;25.48;46.87;99224.53;5051009;28;19909;-52
2022/06/08 04:32:34;;;;;;;;;;;;;;;25.29;46.29;99216.63;5051677;28;19939;-49
2022/06/08 04:34:59;;;;;;;;;;;;;;;26.01;44.50;99218.13;5052015;28;20276;-47
2022/06/08 04:37:24;;;;;;;;;;;;;;;26.48;42.66;99225.66;5052338;28;19959;-48
2022/06/08 04:39:50;;;;;;;;;;;;;;;26.53;42.76;99214.59;5052427;28;20269;-49
2022/06/08 04:42:15;;;;;;;;;;;;;;;26.62;43.15;99223.59;5052555;28;19909;-49
2022/06/08 04:44:40;;;;;;;;;;;;;;;27.24;41.67;99221.50;5052187;28;19931;-50
2022/06/08 04:47:07;;;;;;;;;;;;;;;27.21;41.44;99224.91;5050808;28;20026;-51
2022/06/08 04:49:35;;;;;;;;;;;;;;;27.50;41.27;99224.97;5050840;28;19915;-50
2022/06/08 04:52:00;;;;;;;;;;;;;;;28.11;40.25;99236.69;5050246;28;20436;-48
2022/06/08 04:54:26;;;;;;;;;;;;;;;28.33;39.32;99225.44;5050737;28;20008;-48
2022/06/08 04:56:52;;;;;;;;;;;;;;;28.68;37.94;99221.59;5051861;28;20136;-47
2022/06/08 04:59:17;;;;;;;;;;;;;;;28.82;38.03;99228.38;5051898;28;19919;-49
2022/06/08 05:01:42;;;;;;;;;;;;;;;29.27;37.33;99232.25;5051481;28;20292;-47
2022/06/08 05:04:08;;;;;;;;;;;;;;;29.65;36.92;99236.59;5052374;28;19909;-45
2022/06/08 05:06:33;;;;;;;;;;;;;;;30.09;35.15;99233.28;5052296;28;20026;-49
2022/06/08 05:08:58;;;;;;;;;;;;;;;30.55;34.30;99231.06;5051420;28;20334;-47
2022/06/08 05:11:24;;;;;;;;;;;;;;;31.18;33.17;99225.69;5051892;28;19909;-46
2022/06/08 05:13:49;;;;;;;;;;;;;;;31.54;32.65;99223.84;5052150;28;19912;-46
2022/06/08 05:16:14;;;;;;;;;;;;;;;31.53;32.74;99232.47;5051868;28;20428;-48
2022/06/08 05:18:40;;;;;;;;;;;;;;;31.32;32.21;99227.22;5052038;28;19919;-48
2022/06/08 05:21:05;;;;;;;;;;;;;;;31.92;31.37;99227.06;5046291;28;19913;-47
2022/06/08 05:23:32;;;;;;;;;;;;;;;32.15;31.71;99222.47;5031184;28;19916;-47
2022/06/08 05:25:58;;;;;;;;;;;;;;;32.62;30.39;99222.66;5031897;28;20197;-48
2022/06/08 05:28:23;;;;;;;;;;;;;;;31.36;32.26;99230.88;5032024;28;20376;-48
2022/06/08 05:30:49;;;;;;;;;;;;;;;32.05;31.58;99225.03;5031799;28;19915;-50
2022/06/08 05:33:14;;;;;;;;;;;;;;;32.05;30.93;99225.81;5031089;28;20000;-50
2022/06/08 05:35:40;;;;;;;;;;;;;;;32.80;30.13;99229.28;5031235;28;19917;-51
2022/06/08 05:38:07;;;;;;;;;;;;;;;33.04;29.53;99230.91;5032230;28;19959;-49
2022/06/08 05:40:33;;;;;;;;;;;;;;;32.27;30.33;99229.81;5030922;28;19920;-48
2022/06/08 05:42:59;;;;;;;;;;;;;;;32.52;30.22;99237.78;5031395;28;19909;-47
2022/06/08 05:45:25;;;;;;;;;;;;;;;33.15;29.55;99233.06;5031305;28;19909;-50
2022/06/08 05:47:51;;;;;;;;;;;;;;;33.40;29.51;99234.28;5031545;28;20333;-48
2022/06/08 05:50:17;;;;;;;;;;;;;;;33.63;28.73;99230.69;5031249;28;19969;-49
2022/06/08 05:52:42;;;;;;;;;;;;;;;33.75;28.41;99236.03;5031787;28;19920;-48
2022/06/08 05:55:08;;;;;;;;;;;;;;;33.62;28.77;99226.34;5030566;28;20443;-49
2022/06/08 05:57:33;;;;;;;;;;;;;;;32.62;29.29;99228.97;5031202;28;20040;-49
2022/06/08 05:59:58;;;;;;;;;;;;;;;33.36;28.95;99232.63;5030940;28;19908;-50
2022/06/08 06:02:24;;;;;;;;;;;;;;;34.18;28.42;99225.59;5030708;28;19909;-52
2022/06/08 06:04:50;;;;;;;;;;;;;;;34.76;26.88;99218.78;5030621;28;19909;-48
2022/06/08 06:07:15;;;;;;;;;;;;;;;34.93;26.42;99220.13;5030690;28;19963;-51
2022/06/08 06:09:41;;;;;;;;;;;;;;;34.94;26.11;99216.22;5031129;28;19909;-48
2022/06/08 06:12:07;;;;;;;;;;;;;;;35.18;25.22;99214.06;5031040;28;19909;-46
2022/06/08 06:14:33;;;;;;;;;;;;;;;35.14;25.50;99219.53;5031184;28;20027;-49
2022/06/08 06:16:58;;;;;;;;;;;;;;;34.88;25.96;99209.44;5031111;28;20004;-48
2022/06/08 06:19:24;;;;;;;;;;;;;;;34.64;25.94;99216.28;5031170;28;19915;-48
2022/06/08 06:21:50;;;;;;;;;;;;;;;34.14;26.70;99208.19;5042169;28;19909;-48
2022/06/08 06:24:15;;;;;;;;;;;;;;;33.60;27.68;99204.63;5050708;28;19913;-48
2022/06/08 06:26:40;;;;;;;;;;;;;;;33.31;28.29;99206.19;5050598;28;19915;-47
2022/06/08 06:29:05;;;;;;;;;;;;;;;32.84;29.45;99213.66;5050693;28;19909;-50
2022/06/08 06:31:33;;;;;;;;;;;;;;;33.84;28.13;99205.41;5050537;28;20434;-51
2022/06/08 06:33:59;;;;;;;;;;;;;;;33.28;28.24;99209.66;5050521;28;19908;-48
2022/06/08 06:36:24;;;;;;;;;;;;;;;33.38;27.44;99211.81;5038449;28;20274;-48
2022/06/08 06:38:49;;;;;;;;;;;;;;;34.10;27.38;99210.09;5039701;28;19908;-48
2022/06/08 06:41:16;;;;;;;;;;;;;;;34.50;26.38;99219.69;5041906;28;19909;-49
2022/06/08 06:43:41;;;;;;;;;;;;;;;33.20;28.33;99206.00;5042061;28;19915;-50
2022/06/08 06:46:08;;;;;;;;;;;;;;;31.87;30.00;99199.84;5039042;28;20011;-51
2022/06/08 06:48:36;;;;;;;;;;;;;;;31.98;28.83;99192.59;5044834;28;19919;-49
2022/06/08 06:51:01;;;;;;;;;;;;;;;31.74;29.04;99207.44;5031149;28;19916;-48
2022/06/08 06:53:26;;;;;;;;;;;;;;;31.58;29.76;99204.69;5035510;28;20304;-49
2022/06/08 06:55:55;;;;;;;;;;;;;;;31.72;30.19;99204.22;5040917;28;19976;-50
2022/06/08 06:58:20;;;;;;;;;;;;;;;31.58;30.42;99195.66;5041607;28;20011;-50
2022/06/08 07:00:46;;;;;;;;;;;;;;;31.76;30.23;99196.88;5042949;28;19995;-50
2022/06/08 07:03:11;;;;;;;;;;;;;;;31.49;30.79;99198.59;5043321;28;19912;-50
2022/06/08 07:05:36;;;;;;;;;;;;;;;31.63;30.55;99192.63;5042721;28;20381;-50
2022/06/08 07:08:02;;;;;;;;;;;;;;;32.10;31.21;99183.44;5038346;28;19917;-51
2022/06/08 07:10:27;;;;;;;;;;;;;;;32.37;30.22;99184.41;5046019;28;19991;-49
2022/06/08 07:12:52;;;;;;;;;;;;;;;31.96;30.82;99183.94;5033683;28;19912;-51
2022/06/08 07:15:19;;;;;;;;;;;;;;;31.08;30.44;99185.03;5044117;28;20031;-52
2022/06/08 07:17:44;;;;;;;;;;;;;;;31.35;29.68;99179.78;5040755;28;20364;-51
2022/06/08 07:20:10;;;;;;;;;;;;;;;30.17;31.83;99177.47;5038811;28;19916;-49
2022/06/08 07:22:36;;;;;;;;;;;;;;;30.21;31.64;99186.59;5041484;28;19955;-52
2022/06/08 07:25:03;;;;;;;;;;;;;;;29.98;32.02;99173.38;5040311;28;19944;-51
2022/06/08 07:27:28;;;;;;;;;;;;;;;30.02;32.42;99179.81;5044802;28;19913;-53
2022/06/08 07:29:54;;;;;;;;;;;;;;;31.23;30.82;99169.69;5050511;28;19964;-49
2022/06/08 07:32:19;;;;;;;;;;;;;;;31.56;30.11;99161.06;5049662;28;19916;-49
2022/06/08 07:34:44;;;;;;;;;;;;;;;31.42;30.13;99170.94;5050028;28;19913;-49
2022/06/08 07:37:09;;;;;;;;;;;;;;;30.75;31.50;99166.13;5049637;28;19920;-52
2022/06/08 07:39:35;;;;;;;;;;;;;;;30.29;31.76;99173.84;5049745;28;19916;-51
2022/06/08 07:42:00;;;;;;;;;;;;;;;30.90;31.69;99167.31;5049397;28;19974;-50
2022/06/08 07:44:26;;;;;;;;;;;;;;;30.67;32.05;99167.06;5050309;28;19951;-51
2022/06/08 07:46:51;;;;;;;;;;;;;;;29.42;33.21;99167.75;5049789;28;19940;-50
2022/06/08 07:49:37;;;;;;;;;;;;;;;29.06;34.64;99169.31;5050249;28;20295;-49
2022/06/08 07:52:05;;;;;;;;;;;;;;;29.61;33.85;99164.44;5049467;28;19917;-49
2022/06/08 07:54:30;;;;;;;;;;;;;;;29.61;34.14;99167.97;5049673;28;20011;-51
2022/06/08 07:56:56;;;;;;;;;;;;;;;29.55;33.36;99163.06;5049831;28;19913;-52
2022/06/08 07:59:23;;;;;;;;;;;;;;;30.38;32.03;99167.09;5049663;28;19909;-51
2022/06/08 08:01:49;;;;;;;;;;;;;;;30.20;33.21;99166.59;5049077;28;19986;-49
2022/06/08 08:04:14;;;;;;;;;;;;;;;29.56;33.08;99170.13;5052150;28;19909;-49
2022/06/08 08:06:40;;;;;;;;;;;;;;;29.02;34.22;99154.72;5053333;28;19913;-49
2022/06/08 08:09:09;;;;;;;;;;;;;;;28.68;35.06;99166.88;5053571;28;19908;-48
2022/06/08 08:11:35;;;;;;;;;;;;;;;28.65;34.30;99165.59;5053642;28;20324;-52
2022/06/08 08:14:00;;;;;;;;;;;;;;;29.18;32.59;99166.59;5052988;28;20473;-50
2022/06/08 08:16:25;;;;;;;;;;;;;;;29.50;33.09;99160.56;5053229;28;20345;-53
2022/06/08 08:18:50;;;;;;;;;;;;;;;29.63;34.25;99160.19;5053335;28;20007;-51
2022/06/08 08:21:16;;;;;;;;;;;;;;;29.46;34.07;99162.41;5046246;28;19928;-48
2022/06/08 08:23:41;;;;;;;;;;;;;;;29.35;32.75;99154.63;5033068;28;19909;-50
2022/06/08 08:26:06;;;;;;;;;;;;;;;29.16;33.98;99159.88;5033101;28;20073;-49
2022/06/08 08:28:32;;;;;;;;;;;;;;;28.66;34.45;99159.00;5033010;28;19932;-50
2022/06/08 08:30:57;;;;;;;;;;;;;;;29.52;33.37;99155.53;5033827;28;19982;-50
2022/06/08 08:33:22;;;;;;;;;;;;;;;29.03;32.11;99159.03;5042378;28;20008;-49
2022/06/08 08:35:50;;;;;;;;;;;;;;;29.00;32.68;99165.22;5041136;28;19913;-49
2022/06/08 08:38:15;;;;;;;;;;;;;;;29.85;31.63;99165.56;5042358;28;19913;-47
2022/06/08 08:40:46;;;;;;;;;;;;;;;30.29;31.04;99163.69;5033357;28;20047;-48
2022/06/08 08:43:14;;;;;;;;;;;;;;;29.96;32.33;99169.41;5032807;28;19981;-49
2022/06/08 08:45:50;;;;;;;;;;;;;;;29.22;32.19;99159.31;5032769;28;20416;-49
2022/06/08 08:48:24;;;;;;;;;;;;;;;29.70;31.66;99165.09;5033184;28;19940;-48
2022/06/08 08:51:09;;;;;;;;;;;;;;;30.35;30.53;99167.03;5032907;28;20302;-51
2022/06/08 08:53:52;;;;;;;;;;;;;;;29.82;31.31;99156.88;5036388;28;19939;-49
2022/06/08 08:56:24;;;;;;;;;;;;;;;29.66;31.67;99164.19;5036365;28;19917;-48
2022/06/08 08:58:50;;;;;;;;;;;;;;;29.32;31.84;99160.00;5032408;28;20014;-48
2022/06/08 09:01:19;;;;;;;;;;;;;;;29.08;32.56;99158.81;5032578;28;19963;-48
2022/06/08 09:03:47;;;;;;;;;;;;;;;29.28;30.87;99140.69;5032377;28;19909;-50
2022/06/08 09:06:15;;;;;;;;;;;;;;;28.75;31.89;99146.00;5032164;28;20011;-49
2022/06/08 09:08:43;;;;;;;;;;;;;;;28.53;32.42;99143.69;5044244;28;19912;-49
2022/06/08 09:11:16;;;;;;;;;;;;;;;29.59;31.22;99144.78;5052045;28;20358;-49
2022/06/08 09:13:47;;;;;;;;;;;;;;;30.20;31.15;99143.84;5051410;28;19999;-49
2022/06/08 09:16:27;;;;;;;;;;;;;;;29.42;32.04;99148.59;5051408;28;19912;-47
2022/06/08 09:18:52;;;;;;;;;;;;;;;29.16;31.75;99137.97;5051523;28;19912;-48
2022/06/08 09:21:34;;;;;;;;;;;;;;;29.03;32.28;99143.44;5043775;28;20368;-48
2022/06/08 09:24:22;;;;;;;;;;;;;;;28.97;31.06;99135.75;5030553;28;20403;-47
2022/06/08 09:26:47;;;;;;;;;;;;;;;29.51;30.64;99135.56;5030149;28;19920;-47
2022/06/08 09:29:15;;;;;;;;;;;;;;;29.99;29.94;99136.59;5030088;28;20325;-47
2022/06/08 09:31:41;;;;;;;;;;;;;;;29.03;31.94;99151.66;5030121;28;19928;-48
2022/06/08 09:34:12;;;;;;;;;;;;;;;28.88;31.38;99132.31;5030328;28;19909;-49
2022/06/08 09:36:37;;;;;;;;;;;;;;;28.85;32.28;99123.66;5031154;28;20401;-50
2022/06/08 09:39:03;;;;;;;;;;;;;;;29.27;31.63;99124.63;5031789;28;19913;-50
2022/06/08 09:41:34;;;;;;;;;;;;;;;29.36;31.96;99126.09;5031709;28;19988;-49
2022/06/08 09:44:09;;;;;;;;;;;;;;;28.90;32.99;99119.91;5031813;28;19916;-52
2022/06/08 09:52:48;;;;;;;;;;;;;;;29.98;31.86;99115.78;5051097;28;19986;-50
2022/06/08 09:55:27;;;;;;;;;;;;;;;29.75;32.17;99115.53;5051358;28;19920;-49
2022/06/08 09:58:11;;;;;;;;;;;;;;;28.97;32.67;99117.38;5051262;28;19923;-49
2022/06/08 10:00:44;;;;;;;;;;;;;;;28.95;31.88;99110.66;5051160;28;19913;-50
2022/06/08 10:03:15;;;;;;;;;;;;;;;29.18;31.86;99111.03;5051141;28;19983;-49
2022/06/08 10:05:59;;;;;;;;;;;;;;;29.33;32.38;99099.38;5050719;28;20365;-51
2022/06/08 10:08:24;;;;;;;;;;;;;;;29.28;32.35;99094.13;5051024;28;20376;-51
2022/06/08 10:14:08;;;;;;;;;;;;;;;30.02;31.52;99089.28;5051019;28;20351;-48
2022/06/08 10:16:38;;;;;;;;;;;;;;;30.55;31.11;99091.09;5050968;28;19943;-51
2022/06/08 10:19:08;;;;;;;;;;;;;;;30.33;30.74;99086.97;5050733;28;19912;-50
2022/06/08 10:21:37;;;;;;;;;;;;;;;29.93;31.79;99076.84;5040948;28;20274;-47
2022/06/08 10:24:12;;;;;;;;;;;;;;;30.01;32.04;99084.16;5030812;28;19935;-51
2022/06/08 10:26:40;;;;;;;;;;;;;;;29.66;32.70;99078.41;5030196;28;19916;-51
2022/06/08 10:29:15;;;;;;;;;;;;;;;29.84;32.92;99081.72;5030823;28;19967;-51
2022/06/08 10:31:46;;;;;;;;;;;;;;;29.99;32.81;99068.03;5030340;28;19920;-49
2022/06/08 10:34:27;;;;;;;;;;;;;;;30.16;33.17;99071.63;5030645;28;19986;-52
2022/06/08 10:36:58;;;;;;;;;;;;;;;30.21;32.31;99068.59;5030787;28;19920;-50
2022/06/08 10:39:24;;;;;;;;;;;;;;;29.65;32.77;99071.34;5030725;28;20450;-51
2022/06/08 10:44:52;;;;;;;;;;;;;;;29.83;32.94;99061.69;5030409;28;20004;-52
2022/06/08 10:47:24;;;;;;;;;;;;;;;30.06;32.20;99058.41;5030678;28;20003;-53
2022/06/08 10:49:53;;;;;;;;;;;;;;;29.98;32.35;99062.91;5030479;28;20472;-51
2022/06/08 10:52:18;;;;;;;;;;;;;;;30.14;31.47;99050.03;5030781;28;19913;-51
2022/06/08 10:54:54;;;;;;;;;;;;;;;30.34;33.13;99039.97;5029941;28;19917;-52
2022/06/08 10:57:39;;;;;;;;;;;;;;;30.25;31.20;99036.56;5030060;28;19948;-52
2022/06/08 11:00:19;;;;;;;;;;;;;;;30.56;31.07;99030.34;5029972;28;20396;-49
2022/06/08 11:03:01;;;;;;;;;;;;;;;30.33;30.97;99021.94;5030188;28;19931;-47
2022/06/08 11:05:37;;;;;;;;;;;;;;;30.02;33.00;99039.91;5029059;28;19915;-48
2022/06/08 11:08:05;;;;;;;;;;;;;;;29.62;32.54;99016.06;5030579;28;19952;-47
2022/06/08 11:10:51;;;;;;;;;;;;;;;30.21;31.85;99006.31;5030441;28;20313;-49
2022/06/08 11:13:22;;;;;;;;;;;;;;;30.36;30.45;99007.50;5030638;28;19909;-49
2022/06/08 11:15:47;;;;;;;;;;;;;;;30.13;31.17;98999.03;5030436;28;19935;-50
2022/06/08 11:18:17;;;;;;;;;;;;;;;30.36;30.03;98998.47;5030346;28;19913;-49
2022/06/08 11:20:47;;;;;;;;;;;;;;;30.35;31.56;98988.66;5032636;28;19913;-46
2022/06/08 11:23:29;;;;;;;;;;;;;;;30.11;32.44;98993.13;5050094;28;19967;-48
2022/06/08 11:26:04;;;;;;;;;;;;;;;29.79;32.79;98995.78;5049571;28;19999;-49
2022/06/08 11:28:44;;;;;;;;;;;;;;;29.61;32.45;99000.75;5049886;28;19916;-48
2022/06/08 11:31:30;;;;;;;;;;;;;;;29.20;32.05;99005.44;5050124;28;20055;-48
2022/06/08 11:33:58;;;;;;;;;;;;;;;29.46;32.10;98995.25;5049684;28;19915;-53
2022/06/08 11:36:29;;;;;;;;;;;;;;;29.60;31.83;98998.38;5049611;28;19979;-49
2022/06/08 11:38:54;;;;;;;;;;;;;;;28.79;34.65;98996.38;5054417;28;19965;-48
2022/06/08 11:41:20;;;;;;;;;;;;;;;28.99;33.54;98982.88;5054565;28;19999;-47
2022/06/08 11:43:47;;;;;;;;;;;;;;;29.30;34.16;98979.53;5053754;28;19908;-51
2022/06/08 11:46:20;;;;;;;;;;;;;;;29.85;33.72;98977.16;5053961;28;19909;-49
2022/06/08 11:48:49;;;;;;;;;;;;;;;29.63;32.71;98978.50;5053487;28;20042;-48
2022/06/08 11:51:28;;;;;;;;;;;;;;;29.44;33.38;98979.94;5053944;28;19913;-52
2022/06/08 11:53:53;;;;;;;;;;;;;;;28.87;34.17;98985.66;5053614;28;19917;-50
2022/06/08 11:56:21;;;;;;;;;;;;;;;28.48;34.31;98975.00;5053250;28;19912;-51
2022/06/08 11:59:03;;;;;;;;;;;;;;;29.39;33.40;98985.66;5053204;28;20384;-51
2022/06/08 12:01:42;;;;;;;;;;;;;;;29.82;32.39;98977.88;5053504;28;19909;-51
2022/06/08 12:04:11;;;;;;;;;;;;;;;29.86;32.04;98981.50;5053547;28;20011;-48
2022/06/08 12:06:38;;;;;;;;;;;;;;;29.67;31.44;98992.31;5053718;28;19909;-47
2022/06/08 12:09:03;;;;;;;;;;;;;;;29.18;32.59;98963.91;5053098;28;19920;-48
2022/06/08 12:11:30;;;;;;;;;;;;;;;29.77;32.52;98975.38;5053267;28;19909;-46
2022/06/08 12:14:00;;;;;;;;;;;;;;;30.11;31.82;98973.91;5053186;28;19909;-48
2022/06/08 12:16:30;;;;;;;;;;;;;;;29.62;32.69;98976.88;5053307;28;20007;-47
2022/06/08 12:19:15;;;;;;;;;;;;;;;30.12;32.51;98967.28;5053087;28;19967;-47
2022/06/08 12:21:42;;;;;;;;;;;;;;;30.58;32.18;98962.16;5042410;28;19920;-48
2022/06/08 12:24:10;;;;;;;;;;;;;;;30.12;33.54;98961.00;5033136;28;20326;-48
2022/06/08 12:26:39;;;;;;;;;;;;;;;30.15;32.93;98952.06;5033140;28;19909;-49
2022/06/08 12:29:16;;;;;;;;;;;;;;;29.70;33.85;98953.22;5032785;28;19915;-49
2022/06/08 12:31:43;;;;;;;;;;;;;;;29.55;33.98;98952.84;5032892;28;19917;-50
2022/06/08 12:34:27;;;;;;;;;;;;;;;29.18;34.76;98939.25;5033124;28;20270;-47
2022/06/08 12:36:53;;;;;;;;;;;;;;;29.03;35.42;98951.72;5033112;28;19920;-47
2022/06/08 12:39:23;;;;;;;;;;;;;;;28.71;36.04;98941.72;5033303;28;19909;-49
2022/06/08 12:41:51;;;;;;;;;;;;;;;29.26;34.48;98934.00;5032754;28;19915;-50
2022/06/08 12:44:24;;;;;;;;;;;;;;;29.78;33.68;98930.38;5032870;28;19944;-49
2022/06/08 12:47:16;;;;;;;;;;;;;;;29.60;33.46;98947.09;5033065;28;19909;-53
2022/06/08 12:49:42;;;;;;;;;;;;;;;29.59;33.98;98931.00;5032185;28;19967;-49
2022/06/08 12:52:22;;;;;;;;;;;;;;;30.46;32.46;98929.31;5032764;28;19975;-49
2022/06/08 12:54:47;;;;;;;;;;;;;;;30.07;32.50;98912.69;5032769;28;20385;-48
2022/06/08 12:57:16;;;;;;;;;;;;;;;30.11;33.24;98932.75;5032267;28;19924;-49
2022/06/08 12:59:41;;;;;;;;;;;;;;;29.77;33.42;98926.81;5032295;28;19920;-50
2022/06/08 13:02:12;;;;;;;;;;;;;;;29.36;33.83;98937.03;5031980;28;19909;-47
2022/06/08 13:04:37;;;;;;;;;;;;;;;29.58;34.27;98929.41;5030863;28;20236;-45
2022/06/08 13:07:02;;;;;;;;;;;;;;;29.69;33.14;98924.22;5032680;28;20351;-49
2022/06/08 13:09:28;;;;;;;;;;;;;;;30.51;33.54;98928.25;5032591;28;19924;-49
2022/06/08 13:11:56;;;;;;;;;;;;;;;30.99;31.68;98912.47;5031980;28;20003;-51